Time;durP1;ratioP1;P1;durP2;ratioP2;P2;SDS_P1;SDS_P2;PMS_P1;PMS_P2;Temp;Humidity;BMP_temperature;BMP_pressure;BME280_temperature;BME280_humidity;BME280_pressure;Samples;Min_cycle;Max_cycle;Signal;HPM_P1;HPM_P2
2022/10/11 08:06:42;;;;;;;7.03;2.20;;;19.00;99.90;;;;;;6337692;22;20196;-69
2022/10/11 08:09:10;;;;;;;6.30;2.03;;;19.10;99.90;;;;;;6338934;22;20173;-71
2022/10/11 08:11:38;;;;;;;6.57;2.78;;;19.30;99.90;;;;;;6321890;22;20518;-68
2022/10/11 08:14:07;;;;;;;5.82;1.95;;;19.40;99.90;;;;;;6306733;22;20205;-68
2022/10/11 08:16:34;;;;;;;6.05;2.03;;;19.50;99.90;;;;;;6307231;22;20174;-68
2022/10/11 08:19:02;;;;;;;3.08;1.80;;;19.70;99.90;;;;;;6307958;22;20174;-69
2022/10/11 08:21:29;;;;;;;5.07;1.85;;;19.90;99.90;;;;;;6307860;22;20194;-69
2022/10/11 08:23:57;;;;;;;8.13;2.40;;;19.80;99.90;;;;;;6308025;22;20185;-69
2022/10/11 08:26:24;;;;;;;6.80;2.08;;;19.90;99.90;;;;;;6307510;22;20487;-68
2022/10/11 08:28:51;;;;;;;7.40;2.33;;;20.00;99.90;;;;;;6307126;22;20174;-68
2022/10/11 08:31:17;;;;;;;4.20;2.00;;;20.20;99.90;;;;;;6307124;22;20589;-68
2022/10/11 08:33:44;;;;;;;6.63;2.17;;;19.90;99.90;;;;;;6307194;22;20205;-68
2022/10/11 08:36:11;;;;;;;7.28;2.15;;;19.20;99.90;;;;;;6308074;22;20188;-68
2022/10/11 08:38:39;;;;;;;5.90;1.90;;;18.70;99.90;;;;;;6307540;22;20180;-68
2022/10/11 08:41:25;;;;;;;4.38;1.85;;;18.70;99.90;;;;;;6307439;22;20194;-68
2022/10/11 08:44:00;;;;;;;6.78;1.83;;;19.00;99.90;;;;;;6307783;22;20192;-69
2022/10/11 08:46:31;;;;;;;5.57;2.08;;;19.30;99.90;;;;;;6307903;22;20629;-68
2022/10/11 08:48:58;;;;;;;6.20;1.95;;;18.80;99.90;;;;;;6307858;22;20181;-68
2022/10/11 08:51:28;;;;;;;7.68;1.52;;;18.60;99.90;;;;;;6306115;22;20522;-68
2022/10/11 08:53:59;;;;;;;5.30;1.80;;;18.60;99.90;;;;;;6307395;22;20285;-68
2022/10/11 08:56:29;;;;;;;4.55;1.40;;;18.50;99.90;;;;;;6308186;22;20178;-69
2022/10/11 08:59:01;;;;;;;6.03;1.60;;;17.90;99.90;;;;;;6307619;22;20174;-68
2022/10/11 09:01:29;;;;;;;5.25;1.30;;;17.40;99.90;;;;;;6306244;22;20678;-68
2022/10/11 09:03:58;;;;;;;5.28;1.40;;;17.00;99.90;;;;;;6307646;22;20261;-68
2022/10/11 09:06:36;;;;;;;4.20;1.27;;;16.70;99.90;;;;;;6306696;22;20185;-70
2022/10/11 09:09:15;;;;;;;4.70;1.40;;;16.70;99.90;;;;;;6308235;22;20181;-72
2022/10/11 09:11:56;;;;;;;3.23;1.30;;;16.50;99.90;;;;;;6307891;22;20193;-70
2022/10/11 09:14:42;;;;;;;5.77;1.33;;;16.20;99.90;;;;;;6306941;22;20212;-71
2022/10/11 09:17:18;;;;;;;5.60;1.27;;;16.00;99.90;;;;;;6307196;22;20174;-71
2022/10/11 09:20:12;;;;;;;4.53;1.57;;;15.90;99.90;;;;;;6307512;22;20185;-70
2022/10/11 09:22:47;;;;;;;7.00;1.00;;;15.80;99.90;;;;;;6306859;22;20248;-70
2022/10/11 09:25:25;;;;;;;2.73;0.70;;;15.60;99.90;;;;;;6305405;22;20243;-73
2022/10/11 09:28:05;;;;;;;3.40;0.90;;;15.40;99.90;;;;;;6306945;22;20669;-70
2022/10/11 09:30:33;;;;;;;2.17;0.80;;;15.20;99.90;;;;;;6307514;22;20256;-69
2022/10/11 09:33:12;;;;;;;3.37;0.77;;;14.90;99.90;;;;;;6307426;22;20178;-69
2022/10/11 09:35:42;;;;;;;4.70;1.10;;;14.90;99.90;;;;;;6307518;22;20524;-72
2022/10/11 09:38:17;;;;;;;1.73;0.70;;;14.50;99.90;;;;;;6307769;22;20512;-71
2022/10/11 09:40:53;;;;;;;2.67;0.60;;;14.40;99.90;;;;;;6307370;22;20201;-70
2022/10/11 09:43:21;;;;;;;2.23;0.60;;;14.60;99.90;;;;;;6307136;22;20180;-70
2022/10/11 09:45:48;;;;;;;2.73;0.53;;;14.70;99.90;;;;;;6306962;22;20178;-70
2022/10/11 09:48:19;;;;;;;6.47;0.80;;;14.90;99.90;;;;;;6307599;22;20196;-71
2022/10/11 09:50:46;;;;;;;2.13;0.57;;;14.80;99.90;;;;;;6306956;22;20677;-71
2022/10/11 09:53:13;;;;;;;3.67;0.70;;;14.60;99.90;;;;;;6307052;22;20174;-71
2022/10/11 09:55:48;;;;;;;3.73;0.67;;;14.40;99.90;;;;;;6307057;22;20212;-68
2022/10/11 09:58:30;;;;;;;3.50;0.77;;;14.20;99.90;;;;;;6307050;22;20265;-71
2022/10/11 10:00:59;;;;;;;4.07;0.70;;;14.50;99.90;;;;;;6306489;22;20204;-69
2022/10/11 10:03:31;;;;;;;1.13;0.40;;;14.60;99.90;;;;;;6306528;22;20236;-69
2022/10/11 10:06:17;;;;;;;3.73;0.33;;;14.60;99.90;;;;;;6305624;22;20515;-69
2022/10/11 10:08:45;;;;;;;2.30;0.40;;;14.60;99.90;;;;;;6306748;22;20260;-68
2022/10/11 10:11:13;;;;;;;2.63;0.30;;;14.70;99.90;;;;;;6306729;22;20198;-68
2022/10/11 10:13:50;;;;;;;2.93;0.50;;;15.00;99.90;;;;;;6307449;22;20174;-68
2022/10/11 10:16:24;;;;;;;2.90;0.60;;;15.00;99.90;;;;;;6307413;22;20228;-68
2022/10/11 10:18:54;;;;;;;2.60;0.70;;;14.90;99.90;;;;;;6307398;22;20180;-68
2022/10/11 10:21:27;;;;;;;3.97;0.50;;;14.90;99.90;;;;;;6306604;22;20279;-67
2022/10/11 10:23:55;;;;;;;1.23;0.37;;;14.90;99.90;;;;;;6305248;22;20231;-68
2022/10/11 10:26:24;;;;;;;0.77;0.40;;;14.80;99.90;;;;;;6305718;22;20199;-68
2022/10/11 10:29:02;;;;;;;2.80;0.60;;;14.80;99.90;;;;;;6306994;22;20181;-68
2022/10/11 10:31:36;;;;;;;4.37;0.70;;;14.90;99.90;;;;;;6307044;22;20193;-68
2022/10/11 10:34:07;;;;;;;3.53;0.50;;;14.90;99.90;;;;;;6307161;22;20179;-68
2022/10/11 10:36:36;;;;;;;5.10;0.60;;;14.80;99.90;;;;;;6307214;22;20178;-68
2022/10/11 10:39:13;;;;;;;3.60;0.60;;;14.70;99.90;;;;;;6307200;22;20261;-68
2022/10/11 10:41:40;;;;;;;3.33;1.33;;;14.60;99.90;;;;;;6307241;22;20669;-68
2022/10/11 10:44:11;;;;;;;2.80;0.57;;;14.60;99.90;;;;;;6307220;22;20173;-68
2022/10/11 10:47:01;;;;;;;4.03;0.50;;;14.60;99.90;;;;;;6306574;22;20174;-68
2022/10/11 10:49:37;;;;;;;2.10;0.63;;;14.70;99.90;;;;;;6307168;22;20626;-68
2022/10/11 10:52:25;;;;;;;0.67;0.33;;;14.90;99.90;;;;;;6307479;22;20219;-69
2022/10/11 10:54:59;;;;;;;4.20;0.60;;;15.10;99.90;;;;;;6306713;22;20280;-68
2022/10/11 10:57:32;;;;;;;5.80;0.90;;;15.30;99.90;;;;;;6307590;22;20174;-69
2022/10/11 11:00:12;;;;;;;4.20;0.50;;;15.40;99.90;;;;;;6307204;22;20181;-68
2022/10/11 11:02:47;;;;;;;3.60;0.50;;;15.50;99.90;;;;;;6306573;22;20197;-69
2022/10/11 11:05:25;;;;;;;1.33;0.50;;;15.20;99.90;;;;;;6306445;22;20277;-69
2022/10/11 11:07:58;;;;;;;1.43;0.67;;;14.90;99.90;;;;;;6306981;22;20181;-69
2022/10/11 11:10:33;;;;;;;1.40;0.37;;;15.10;99.90;;;;;;6306852;22;20636;-68
2022/10/11 11:13:15;;;;;;;1.80;0.83;;;15.10;99.90;;;;;;6307277;22;20180;-69
2022/10/11 11:15:49;;;;;;;5.50;0.70;;;15.30;99.90;;;;;;6297984;22;20209;-69
2022/10/11 11:18:27;;;;;;;2.47;0.50;;;15.50;99.90;;;;;;6306252;22;20177;-69
2022/10/11 11:21:11;;;;;;;4.60;0.60;;;15.50;99.90;;;;;;6306864;22;20200;-73
2022/10/11 11:23:43;;;;;;;2.77;0.50;;;15.10;99.90;;;;;;6306182;22;20184;-71
2022/10/11 11:26:20;;;;;;;1.77;0.70;;;14.90;99.90;;;;;;6306413;22;20498;-72
2022/10/11 11:28:58;;;;;;;3.27;0.57;;;15.00;99.90;;;;;;6307488;22;20260;-70
2022/10/11 11:31:43;;;;;;;5.10;0.50;;;15.00;99.90;;;;;;6305892;22;20530;-73
2022/10/11 11:34:19;;;;;;;2.47;0.60;;;15.20;99.90;;;;;;6305931;22;20178;-71
2022/10/11 11:36:49;;;;;;;2.73;0.70;;;15.20;99.90;;;;;;6305626;22;20189;-71
2022/10/11 11:39:20;;;;;;;5.30;0.70;;;15.30;99.90;;;;;;6305900;22;20631;-72
2022/10/11 11:41:53;;;;;;;3.23;0.50;;;15.40;99.90;;;;;;6306486;22;20198;-71
2022/10/11 11:44:24;;;;;;;2.57;0.40;;;15.70;99.90;;;;;;6305534;22;20205;-70
2022/10/11 11:46:56;;;;;;;4.40;0.57;;;15.90;99.90;;;;;;6306504;22;20228;-70
2022/10/11 11:49:30;;;;;;;6.20;0.50;;;15.80;99.90;;;;;;6306293;22;20180;-72
2022/10/11 11:51:58;;;;;;;4.80;0.70;;;15.60;99.90;;;;;;6305344;22;20202;-70
2022/10/11 11:54:39;;;;;;;2.77;0.63;;;15.40;99.90;;;;;;6306635;22;20188;-71
2022/10/11 11:57:13;;;;;;;1.50;0.60;;;15.60;99.90;;;;;;6306683;22;20177;-71
2022/10/11 11:59:45;;;;;;;2.27;0.50;;;15.90;99.90;;;;;;6305716;22;20648;-71
2022/10/11 12:02:34;;;;;;;8.10;0.97;;;15.80;99.90;;;;;;6306195;22;20225;-72
2022/10/11 12:05:02;;;;;;;2.70;0.50;;;15.40;99.90;;;;;;6306205;22;20184;-75
2022/10/11 12:07:29;;;;;;;2.00;0.80;;;15.60;99.90;;;;;;6305179;22;20471;-73
2022/10/11 12:10:15;;;;;;;4.33;0.93;;;15.80;99.90;;;;;;6306658;22;20181;-71
2022/10/11 12:12:42;;;;;;;3.67;0.70;;;15.70;99.90;;;;;;6306039;22;20681;-72
2022/10/11 12:15:26;;;;;;;4.47;0.73;;;15.60;99.90;;;;;;6304980;22;20699;-71
2022/10/11 12:18:15;;;;;;;3.50;0.70;;;15.60;99.90;;;;;;6306280;22;20174;-71
2022/10/11 12:20:43;;;;;;;7.77;0.80;;;15.60;99.90;;;;;;6306095;22;20243;-70
2022/10/11 12:23:45;;;;;;;4.07;0.60;;;15.50;99.90;;;;;;6305988;22;20178;-70
2022/10/11 12:26:43;;;;;;;2.33;0.60;;;15.40;99.90;;;;;;6211443;23;20683;-72
2022/10/11 12:29:44;;;;;;;1.70;0.53;;;15.20;99.90;;;;;;6210750;23;20188;-73
2022/10/11 12:32:46;;;;;;;3.70;0.90;;;15.50;99.90;;;;;;6296843;22;20200;-71
2022/10/11 12:35:49;;;;;;;4.27;0.40;;;15.50;99.90;;;;;;6305433;22;20201;-70
2022/10/11 12:38:20;;;;;;;2.23;0.43;;;15.60;99.90;;;;;;6305373;22;20209;-75
2022/10/11 12:40:48;;;;;;;4.00;0.43;;;15.50;99.90;;;;;;6305664;22;20205;-71
2022/10/11 12:43:36;;;;;;;6.17;0.80;;;15.60;99.90;;;;;;6307586;22;20257;-74
2022/10/11 12:46:36;;;;;;;3.20;0.50;;;15.50;99.90;;;;;;6307348;22;20178;-71
2022/10/11 12:49:16;;;;;;;1.63;0.40;;;15.40;99.90;;;;;;6300232;22;20235;-71
2022/10/11 12:51:52;;;;;;;4.47;0.50;;;15.40;99.90;;;;;;6308044;22;20194;-71
2022/10/11 12:54:38;;;;;;;6.07;1.00;;;15.40;99.90;;;;;;6308054;22;20180;-72
2022/10/11 12:57:45;;;;;;;2.37;0.47;;;15.40;99.90;;;;;;6308028;22;20202;-71
2022/10/11 13:00:20;;;;;;;6.30;0.83;;;15.60;99.90;;;;;;6308088;22;20292;-72
2022/10/11 13:02:48;;;;;;;2.40;0.93;;;15.70;99.90;;;;;;6307681;22;20193;-72
2022/10/11 13:05:23;;;;;;;2.13;0.70;;;15.60;99.90;;;;;;6307271;22;20190;-71
2022/10/11 13:07:52;;;;;;;4.93;0.70;;;15.40;99.90;;;;;;6307818;22;20180;-72
2022/10/11 13:10:24;;;;;;;2.87;0.57;;;15.30;99.90;;;;;;6308087;22;20174;-71
2022/10/11 13:12:53;;;;;;;3.90;0.53;;;15.40;99.90;;;;;;6307685;22;20182;-72
2022/10/11 13:15:23;;;;;;;1.40;0.40;;;15.50;99.90;;;;;;6309771;22;20205;-75
2022/10/11 13:17:52;;;;;;;3.20;0.70;;;15.60;99.90;;;;;;6308187;22;20636;-71
2022/10/11 13:20:24;;;;;;;1.40;0.40;;;15.70;99.90;;;;;;6308706;22;20178;-71
2022/10/11 13:22:55;;;;;;;3.20;0.60;;;15.80;99.90;;;;;;6308988;22;20182;-75
2022/10/11 13:25:24;;;;;;;1.27;0.50;;;15.70;99.90;;;;;;6307865;22;20644;-73
2022/10/11 13:27:53;;;;;;;2.77;0.43;;;15.70;99.90;;;;;;6308778;22;20174;-73
2022/10/11 13:30:24;;;;;;;2.60;0.60;;;15.70;99.90;;;;;;6308631;22;20180;-75
2022/10/11 13:32:52;;;;;;;4.53;0.80;;;15.70;99.90;;;;;;6308116;22;20186;-75
2022/10/11 13:35:25;;;;;;;5.93;0.53;;;15.80;99.90;;;;;;6306989;22;20208;-72
2022/10/11 13:37:53;;;;;;;1.60;0.53;;;15.90;99.90;;;;;;6307201;22;20174;-73
2022/10/11 13:40:21;;;;;;;2.63;0.50;;;16.00;99.90;;;;;;6307042;22;20175;-71
2022/10/11 13:42:51;;;;;;;5.20;0.70;;;16.20;99.90;;;;;;6306945;22;20216;-73
2022/10/11 13:45:20;;;;;;;3.47;0.90;;;16.40;99.90;;;;;;6307440;22;20260;-74
2022/10/11 13:47:48;;;;;;;3.07;1.00;;;16.10;99.90;;;;;;6307294;22;20231;-73
2022/10/11 13:50:30;;;;;;;2.43;0.80;;;16.10;99.90;;;;;;6307673;22;20486;-73
2022/10/11 13:53:00;;;;;;;2.17;0.83;;;16.20;99.90;;;;;;6307925;22;20209;-74
2022/10/11 13:55:33;;;;;;;5.60;0.50;;;16.10;99.90;;;;;;6307451;22;20197;-74
2022/10/11 13:58:02;;;;;;;3.60;0.80;;;16.10;99.90;;;;;;6307249;22;20178;-73
2022/10/11 14:00:37;;;;;;;2.17;0.50;;;16.10;99.90;;;;;;6307253;22;20178;-72
2022/10/11 14:03:07;;;;;;;1.27;0.50;;;15.90;99.90;;;;;;6307785;22;20622;-73
2022/10/11 14:05:37;;;;;;;4.93;0.70;;;15.90;99.90;;;;;;6307214;22;20185;-74
2022/10/11 14:08:19;;;;;;;8.10;0.50;;;16.10;99.90;;;;;;6307400;22;20174;-74
2022/10/11 14:10:46;;;;;;;1.60;0.63;;;16.10;99.90;;;;;;6307690;22;20205;-74
2022/10/11 14:13:23;;;;;;;2.70;0.60;;;15.80;99.90;;;;;;6307370;22;20178;-73
2022/10/11 14:16:01;;;;;;;3.00;0.57;;;15.90;99.90;;;;;;6307034;22;20203;-73
2022/10/11 14:18:42;;;;;;;5.90;0.50;;;15.90;99.90;;;;;;6307021;22;20634;-75
2022/10/11 14:21:32;;;;;;;7.70;1.10;;;15.80;99.90;;;;;;6307222;22;20200;-72
2022/10/11 14:24:03;;;;;;;2.83;0.60;;;15.80;99.90;;;;;;6306525;22;20178;-74
2022/10/11 14:26:33;;;;;;;4.23;0.70;;;15.90;99.90;;;;;;6307412;22;20181;-74
2022/10/11 14:29:02;;;;;;;1.90;0.60;;;16.00;99.90;;;;;;6307246;22;20189;-71
2022/10/11 14:31:29;;;;;;;3.73;0.70;;;15.80;99.90;;;;;;6306916;22;20197;-75
2022/10/11 14:33:56;;;;;;;4.50;0.77;;;15.70;99.90;;;;;;6306998;22;20212;-73
2022/10/11 14:36:23;;;;;;;2.00;0.60;;;15.60;99.90;;;;;;6306576;22;20202;-73
2022/10/11 14:38:50;;;;;;;2.10;0.47;;;15.60;99.90;;;;;;6307071;22;20174;-75
2022/10/11 14:41:18;;;;;;;1.50;0.50;;;15.70;99.90;;;;;;6307259;22;20197;-73
2022/10/11 14:43:45;;;;;;;2.93;0.43;;;15.80;99.90;;;;;;6306870;22;20634;-74
2022/10/11 14:46:20;;;;;;;2.77;0.60;;;15.60;99.90;;;;;;6306759;22;20174;-73
2022/10/11 14:48:47;;;;;;;3.43;0.77;;;15.60;99.90;;;;;;6306650;22;20186;-74
2022/10/11 14:51:15;;;;;;;1.57;0.43;;;15.70;99.90;;;;;;6308593;22;20194;-72
2022/10/11 14:53:45;;;;;;;1.40;0.50;;;15.80;99.90;;;;;;6308875;22;20173;-73
2022/10/11 14:56:13;;;;;;;2.43;0.30;;;15.80;99.90;;;;;;6308698;22;20523;-72
2022/10/11 14:58:42;;;;;;;4.13;0.50;;;15.70;99.90;;;;;;6308828;22;20227;-71
2022/10/11 15:01:12;;;;;;;2.90;0.50;;;15.60;99.90;;;;;;6308822;22;20194;-72
2022/10/11 15:03:38;;;;;;;5.07;0.47;;;15.40;99.90;;;;;;6308820;22;20178;-74
2022/10/11 15:06:06;;;;;;;1.90;0.60;;;15.20;99.90;;;;;;6308827;22;20185;-72
2022/10/11 15:08:33;;;;;;;1.53;0.50;;;15.30;99.90;;;;;;6308964;22;20261;-72
2022/10/11 15:11:00;;;;;;;1.83;0.50;;;15.50;99.90;;;;;;6308454;22;20194;-72
2022/10/11 15:13:26;;;;;;;1.50;0.43;;;15.40;99.90;;;;;;6308813;22;20182;-73
2022/10/11 15:15:55;;;;;;;0.83;0.20;;;15.40;99.90;;;;;;6308314;22;20281;-73
2022/10/11 15:18:21;;;;;;;2.37;0.77;;;15.30;99.90;;;;;;6308818;22;20174;-72
2022/10/11 15:20:53;;;;;;;2.33;0.47;;;15.20;99.90;;;;;;6309123;22;20198;-71
2022/10/11 15:23:20;;;;;;;2.70;0.70;;;15.10;99.90;;;;;;6308851;22;20227;-72
2022/10/11 15:25:47;;;;;;;1.73;0.47;;;15.00;99.90;;;;;;6307888;22;20182;-70
2022/10/11 15:28:26;;;;;;;4.00;0.90;;;14.80;99.90;;;;;;6307991;22;20533;-75
2022/10/11 15:30:55;;;;;;;1.33;0.43;;;14.80;99.90;;;;;;6308440;22;20248;-70
2022/10/11 15:33:22;;;;;;;5.70;0.97;;;14.80;99.90;;;;;;6308497;22;20173;-70
2022/10/11 15:35:49;;;;;;;2.70;0.50;;;14.90;99.90;;;;;;6308063;22;20174;-69
2022/10/11 15:38:18;;;;;;;4.13;0.70;;;15.10;99.90;;;;;;6308340;22;20565;-73
2022/10/11 15:40:45;;;;;;;2.27;0.40;;;15.00;99.90;;;;;;6307988;22;20569;-71
2022/10/11 15:43:12;;;;;;;3.13;0.50;;;14.90;99.90;;;;;;6308364;22;20178;-71
2022/10/11 15:45:39;;;;;;;1.87;0.40;;;14.80;99.90;;;;;;6303783;22;20174;-71
2022/10/11 15:48:07;;;;;;;4.47;0.60;;;15.00;99.90;;;;;;6306900;22;20174;-71
2022/10/11 15:50:36;;;;;;;3.47;0.43;;;15.10;99.90;;;;;;6306662;22;20180;-70
2022/10/11 15:53:05;;;;;;;2.03;0.40;;;15.10;99.90;;;;;;6306118;22;20480;-72
2022/10/11 15:55:34;;;;;;;1.93;0.57;;;15.10;99.90;;;;;;6306018;22;20178;-72
2022/10/11 15:58:01;;;;;;;2.93;0.80;;;14.90;99.90;;;;;;6306089;22;20210;-71
2022/10/11 16:00:29;;;;;;;2.43;0.70;;;14.70;99.90;;;;;;6305734;22;20185;-71
2022/10/11 16:02:56;;;;;;;2.30;0.90;;;14.80;99.90;;;;;;6306284;22;20181;-71
2022/10/11 16:05:27;;;;;;;3.97;0.40;;;14.80;99.90;;;;;;6306524;22;20192;-70
2022/10/11 16:07:54;;;;;;;3.33;0.60;;;14.80;99.90;;;;;;6305827;22;20184;-73
2022/10/11 16:10:22;;;;;;;5.37;1.00;;;14.70;99.90;;;;;;6306949;22;20174;-71
2022/10/11 16:12:49;;;;;;;2.47;0.80;;;14.60;99.90;;;;;;6306129;22;20204;-70
2022/10/11 16:15:16;;;;;;;2.60;0.70;;;14.30;99.90;;;;;;6305187;22;20506;-70
2022/10/11 16:17:45;;;;;;;3.33;0.77;;;14.20;99.90;;;;;;6306576;22;20209;-71
2022/10/11 16:20:13;;;;;;;4.20;0.50;;;14.30;99.90;;;;;;6306342;22;20634;-70
2022/10/11 16:22:41;;;;;;;4.17;0.50;;;14.30;99.90;;;;;;6305897;22;20684;-69
2022/10/11 16:25:08;;;;;;;2.53;0.87;;;14.30;99.90;;;;;;6306437;22;20178;-71
2022/10/11 16:27:35;;;;;;;3.23;0.87;;;14.20;99.90;;;;;;6306497;22;20258;-70
2022/10/11 16:30:02;;;;;;;3.40;1.13;;;14.30;99.90;;;;;;6306342;22;20178;-71
2022/10/11 16:32:29;;;;;;;7.00;1.77;;;14.20;99.90;;;;;;6306241;22;20198;-72
2022/10/11 16:34:56;;;;;;;2.97;0.87;;;14.10;99.90;;;;;;6306942;22;20181;-73
2022/10/11 16:37:23;;;;;;;1.77;0.70;;;14.10;99.90;;;;;;6305705;22;20206;-71
2022/10/11 16:39:51;;;;;;;5.63;1.00;;;14.10;99.90;;;;;;6306758;22;20174;-72
2022/10/11 16:42:18;;;;;;;6.53;1.00;;;14.00;99.90;;;;;;6307288;22;20678;-71
2022/10/11 16:44:45;;;;;;;3.43;0.70;;;13.90;99.90;;;;;;6307261;22;20178;-71
2022/10/11 16:47:14;;;;;;;3.63;1.00;;;13.80;99.90;;;;;;6307689;22;20178;-72
2022/10/11 16:49:41;;;;;;;3.17;0.67;;;13.70;99.90;;;;;;6307327;22;20185;-71
2022/10/11 16:52:09;;;;;;;2.33;0.80;;;13.50;99.90;;;;;;6307430;22;20198;-71
2022/10/11 16:54:37;;;;;;;3.80;0.97;;;13.40;99.90;;;;;;6307637;22;20186;-72
2022/10/11 16:57:05;;;;;;;1.90;0.80;;;13.40;99.90;;;;;;6307307;22;20206;-72
2022/10/11 16:59:32;;;;;;;3.80;0.90;;;13.20;99.90;;;;;;6307756;22;20506;-71
2022/10/11 17:01:59;;;;;;;3.07;0.70;;;13.20;99.90;;;;;;6307034;22;20218;-72
2022/10/11 17:04:26;;;;;;;2.20;0.60;;;13.10;99.90;;;;;;6307460;22;20210;-72
2022/10/11 17:06:53;;;;;;;2.30;0.80;;;13.00;99.90;;;;;;6307114;22;20210;-72
2022/10/11 17:09:20;;;;;;;3.10;1.30;;;12.80;99.90;;;;;;6307302;22;20178;-72
2022/10/11 17:11:47;;;;;;;3.17;0.87;;;12.70;99.90;;;;;;6307317;22;20194;-71
2022/10/11 17:14:17;;;;;;;4.27;1.23;;;12.60;99.90;;;;;;6306946;22;20277;-72
2022/10/11 17:16:45;;;;;;;5.17;1.00;;;12.50;99.90;;;;;;6307483;22;20202;-72
2022/10/11 17:19:13;;;;;;;6.17;1.30;;;12.40;99.90;;;;;;6307044;22;20261;-72
2022/10/11 17:21:41;;;;;;;2.30;0.83;;;12.30;99.90;;;;;;6307039;22;20194;-73
2022/10/11 17:24:08;;;;;;;4.70;1.00;;;12.20;99.90;;;;;;6307559;22;20265;-71
2022/10/11 17:26:35;;;;;;;2.30;1.03;;;12.00;99.90;;;;;;6306602;22;20638;-71
2022/10/11 17:29:02;;;;;;;4.57;1.20;;;12.00;99.90;;;;;;6307079;22;20180;-71
2022/10/11 17:31:30;;;;;;;1.47;0.93;;;12.00;99.90;;;;;;6307582;22;20198;-72
2022/10/11 17:33:59;;;;;;;5.10;1.30;;;11.80;99.90;;;;;;6306833;22;20174;-71
2022/10/11 17:36:29;;;;;;;5.50;1.20;;;11.70;99.90;;;;;;6307202;22;20174;-71
2022/10/11 17:38:56;;;;;;;4.33;1.33;;;11.70;99.90;;;;;;6307450;22;20178;-71
2022/10/11 17:41:23;;;;;;;2.60;1.40;;;11.70;99.90;;;;;;6307199;22;20281;-71
2022/10/11 17:43:50;;;;;;;5.97;1.67;;;11.60;99.90;;;;;;6307383;22;20184;-72
2022/10/11 17:46:18;;;;;;;7.87;2.33;;;11.50;99.90;;;;;;6307445;22;20262;-71
2022/10/11 17:48:46;;;;;;;5.60;1.73;;;11.40;99.90;;;;;;6307359;22;20206;-71
2022/10/11 17:51:15;;;;;;;6.37;2.13;;;11.30;99.90;;;;;;6307081;22;20194;-71
2022/10/11 17:53:43;;;;;;;7.13;2.67;;;11.30;99.90;;;;;;6307513;22;20174;-71
2022/10/11 17:56:11;;;;;;;8.87;3.03;;;11.20;99.90;;;;;;6307503;22;20178;-71
2022/10/11 17:58:39;;;;;;;7.07;2.43;;;11.00;99.90;;;;;;6307234;22;20206;-71
2022/10/11 18:01:07;;;;;;;6.00;3.00;;;11.00;99.90;;;;;;6302752;22;20200;-70
2022/10/11 18:03:34;;;;;;;6.57;2.40;;;10.90;99.90;;;;;;6305094;22;20252;-71
2022/10/11 18:06:04;;;;;;;9.13;2.90;;;10.90;99.90;;;;;;6305061;22;20220;-70
2022/10/11 18:08:31;;;;;;;9.17;3.80;;;10.80;99.90;;;;;;6305828;22;20573;-71
2022/10/11 18:10:58;;;;;;;8.80;4.10;;;10.80;99.90;;;;;;6306533;22;20198;-70
2022/10/11 18:13:24;;;;;;;9.83;4.00;;;10.70;99.90;;;;;;6306432;22;20174;-70
2022/10/11 18:15:52;;;;;;;10.13;4.73;;;10.70;99.90;;;;;;6304796;22;20308;-71
2022/10/11 18:18:19;;;;;;;9.40;4.53;;;10.60;99.90;;;;;;6304494;22;20499;-70
2022/10/11 18:20:47;;;;;;;9.73;4.73;;;10.60;99.90;;;;;;6304160;22;20309;-70
2022/10/11 18:23:16;;;;;;;11.17;5.37;;;10.50;99.90;;;;;;6304377;22;20208;-70
2022/10/11 18:25:43;;;;;;;10.07;4.63;;;10.50;99.90;;;;;;6303067;22;20631;-70
2022/10/11 18:28:10;;;;;;;10.53;4.80;;;10.40;99.90;;;;;;6305343;22;20174;-70
2022/10/11 18:30:41;;;;;;;8.93;4.93;;;10.30;99.90;;;;;;6305209;22;20188;-71
2022/10/11 18:33:08;;;;;;;11.87;5.53;;;10.20;99.90;;;;;;6305504;22;20694;-71
2022/10/11 18:35:35;;;;;;;11.67;5.80;;;10.00;99.90;;;;;;6305320;22;20196;-71
2022/10/11 18:38:02;;;;;;;9.60;5.30;;;9.90;99.90;;;;;;6305713;22;20212;-70
2022/10/11 18:40:31;;;;;;;11.27;5.40;;;10.00;99.90;;;;;;6306027;22;20178;-70
2022/10/11 18:42:57;;;;;;;9.07;4.70;;;10.00;99.90;;;;;;6305323;22;20174;-71
2022/10/11 18:45:24;;;;;;;8.77;5.30;;;10.00;99.90;;;;;;6306201;22;20174;-70
2022/10/11 18:47:51;;;;;;;10.53;5.70;;;9.90;99.90;;;;;;6305339;22;20527;-70
2022/10/11 18:50:18;;;;;;;11.77;5.93;;;9.80;99.90;;;;;;6305381;22;20178;-71
2022/10/11 18:52:46;;;;;;;11.97;5.40;;;9.70;99.90;;;;;;6305453;22;20226;-70
2022/10/11 18:55:13;;;;;;;16.87;7.67;;;9.60;99.90;;;;;;6305765;22;20178;-71
2022/10/11 18:57:42;;;;;;;14.60;7.50;;;9.60;99.90;;;;;;6305592;22;20202;-71
2022/10/11 19:00:10;;;;;;;16.60;7.20;;;9.60;99.90;;;;;;6305888;22;20559;-70
2022/10/11 19:02:37;;;;;;;14.97;6.73;;;9.60;99.90;;;;;;6305212;22;20194;-70
2022/10/11 19:05:04;;;;;;;14.80;6.30;;;9.60;99.90;;;;;;6305475;22;20180;-71
2022/10/11 19:07:31;;;;;;;14.27;6.83;;;9.50;99.90;;;;;;6305439;22;20185;-70
2022/10/11 19:09:57;;;;;;;14.53;5.93;;;9.50;99.90;;;;;;6305222;22;20635;-71
2022/10/11 19:12:24;;;;;;;9.87;5.10;;;9.40;99.90;;;;;;6306183;22;20216;-71
2022/10/11 19:14:53;;;;;;;8.50;4.70;;;9.40;99.90;;;;;;6306045;22;20181;-70
2022/10/11 19:17:21;;;;;;;11.07;4.43;;;9.30;99.90;;;;;;6305649;22;20205;-71
2022/10/11 19:19:49;;;;;;;10.77;5.17;;;9.30;99.90;;;;;;6304838;22;20209;-71
2022/10/11 19:22:15;;;;;;;11.17;5.00;;;9.20;99.90;;;;;;6304951;22;20204;-70
2022/10/11 19:24:42;;;;;;;10.07;4.50;;;9.10;99.90;;;;;;6305677;22;20525;-70
2022/10/11 19:27:09;;;;;;;11.40;4.27;;;9.20;99.90;;;;;;6305357;22;20245;-71
2022/10/11 19:29:36;;;;;;;13.30;4.10;;;9.20;99.90;;;;;;6306142;22;20206;-71
2022/10/11 19:32:05;;;;;;;10.00;4.47;;;9.10;99.90;;;;;;6305600;22;20205;-70
2022/10/11 19:34:32;;;;;;;10.30;5.40;;;9.00;99.90;;;;;;6306263;22;20174;-70
2022/10/11 19:37:01;;;;;;;9.83;4.83;;;9.00;99.90;;;;;;6306548;22;20184;-70
2022/10/11 19:39:29;;;;;;;11.43;5.27;;;8.90;99.90;;;;;;6307679;22;20231;-71
2022/10/11 19:41:56;;;;;;;10.20;4.87;;;8.90;99.90;;;;;;6306995;22;20563;-70
2022/10/11 19:44:22;;;;;;;9.13;5.17;;;8.90;99.90;;;;;;6307695;22;20174;-70
2022/10/11 19:46:49;;;;;;;12.20;5.23;;;8.90;99.90;;;;;;6307321;22;20184;-70
2022/10/11 19:49:20;;;;;;;12.33;5.33;;;8.80;99.90;;;;;;6307425;22;20260;-71
2022/10/11 19:51:47;;;;;;;12.63;5.30;;;8.80;99.90;;;;;;6307269;22;20701;-71
2022/10/11 19:54:15;;;;;;;13.73;5.63;;;8.70;99.90;;;;;;6307365;22;20174;-71
2022/10/11 19:56:42;;;;;;;9.43;5.07;;;8.70;99.90;;;;;;6307143;22;20184;-70
2022/10/11 19:59:10;;;;;;;9.63;5.37;;;8.60;99.90;;;;;;6307663;22;20289;-70
2022/10/11 20:01:39;;;;;;;11.80;4.80;;;8.50;99.90;;;;;;6306607;22;20200;-70
2022/10/11 20:04:07;;;;;;;9.50;5.20;;;8.50;99.90;;;;;;6307940;22;20634;-71
2022/10/11 20:06:39;;;;;;;9.37;4.87;;;8.50;99.90;;;;;;6306966;22;20514;-71
2022/10/11 20:09:06;;;;;;;13.93;5.37;;;8.60;99.90;;;;;;6306951;22;20474;-71
2022/10/11 20:11:32;;;;;;;10.80;5.50;;;8.60;99.90;;;;;;6307238;22;20526;-71
2022/10/11 20:13:59;;;;;;;11.47;5.10;;;8.60;99.90;;;;;;6307055;22;20174;-70
2022/10/11 20:16:28;;;;;;;11.83;5.33;;;8.50;99.90;;;;;;6307133;22;20189;-70
2022/10/11 20:18:57;;;;;;;9.53;5.53;;;8.50;99.90;;;;;;6306659;22;20212;-71
2022/10/11 20:21:24;;;;;;;13.80;5.63;;;8.50;99.90;;;;;;6307160;22;20276;-71
2022/10/11 20:23:56;;;;;;;12.97;5.77;;;8.40;99.90;;;;;;6306676;22;20542;-70
2022/10/11 20:26:24;;;;;;;12.73;6.27;;;8.40;99.90;;;;;;6306859;22;20196;-70
2022/10/11 20:28:53;;;;;;;10.90;5.20;;;8.40;99.90;;;;;;6308023;22;20217;-70
2022/10/11 20:31:21;;;;;;;12.50;6.00;;;8.40;99.90;;;;;;6307685;22;20585;-70
2022/10/11 20:33:49;;;;;;;12.23;5.40;;;8.30;99.90;;;;;;6306858;22;20184;-70
2022/10/11 20:36:18;;;;;;;13.50;6.07;;;8.30;99.90;;;;;;6307232;22;20180;-70
2022/10/11 20:38:46;;;;;;;14.00;6.10;;;8.20;99.90;;;;;;6307889;22;20206;-71
2022/10/11 20:41:17;;;;;;;14.27;6.50;;;8.10;99.90;;;;;;6306881;22;20251;-70
2022/10/11 20:43:44;;;;;;;13.27;6.20;;;8.10;99.90;;;;;;6307781;22;20703;-70
2022/10/11 20:46:13;;;;;;;10.87;5.50;;;8.10;99.90;;;;;;6307503;22;20174;-70
2022/10/11 20:48:41;;;;;;;14.97;5.07;;;8.10;99.90;;;;;;6306933;22;20260;-71
2022/10/11 20:51:10;;;;;;;11.33;5.60;;;8.20;99.90;;;;;;6307076;22;20194;-70
2022/10/11 20:53:38;;;;;;;11.77;5.47;;;8.10;99.90;;;;;;6307350;22;20180;-70
2022/10/11 20:56:07;;;;;;;9.53;4.43;;;8.00;99.90;;;;;;6307908;22;20189;-70
2022/10/11 20:58:35;;;;;;;7.73;4.10;;;7.90;99.90;;;;;;6307740;22;20237;-70
2022/10/11 21:01:08;;;;;;;9.03;5.00;;;7.90;99.90;;;;;;6307585;22;20194;-70
2022/10/11 21:03:35;;;;;;;8.60;4.27;;;7.90;99.90;;;;;;6307839;22;20189;-70
2022/10/11 21:06:02;;;;;;;9.30;3.93;;;7.90;99.90;;;;;;6306871;22;20182;-70
2022/10/11 21:08:28;;;;;;;6.30;4.00;;;7.80;99.90;;;;;;6307604;22;20200;-70
2022/10/11 21:10:55;;;;;;;7.83;4.37;;;7.80;99.90;;;;;;6307488;22;20527;-71
2022/10/11 21:13:23;;;;;;;8.00;3.70;;;7.80;99.90;;;;;;6308457;22;20174;-70